createdAt,value
2023-05-04T00:02:33.399Z,101220.59
2023-05-04T00:05:20.259Z,101186.44
2023-05-04T00:08:00.269Z,101180.22
2023-05-04T00:10:47.224Z,101155.25
2023-05-04T00:13:27.394Z,101175.63
2023-05-04T00:16:14.222Z,101157.41
2023-05-04T00:18:54.350Z,101170.78
2023-05-04T00:21:41.151Z,101208.13
2023-05-04T00:24:21.420Z,101208.13
2023-05-04T00:27:09.197Z,101186.34
2023-05-04T00:29:49.265Z,101184.81
2023-05-04T00:32:37.239Z,101176.94
2023-05-04T00:35:17.310Z,101176.41
2023-05-04T00:38:04.213Z,101176.94
2023-05-04T00:40:51.125Z,101167.53
2023-05-04T00:43:38.125Z,101153.13
2023-05-04T00:46:26.205Z,101158.63
2023-05-04T00:49:07.705Z,101152.00
2023-05-04T00:51:54.125Z,101151.91
2023-05-04T00:54:34.939Z,101146.88
2023-05-04T00:57:22.165Z,101134.50
2023-05-04T01:00:10.140Z,101136.34
2023-05-04T01:02:50.371Z,101139.41
2023-05-04T01:05:43.163Z,101140.13
2023-05-04T01:08:28.211Z,101122.31
2023-05-04T01:11:27.161Z,101130.59
2023-05-04T01:14:08.183Z,101138.28
2023-05-04T01:17:01.197Z,101123.50
2023-05-04T01:19:42.182Z,101117.94
2023-05-04T01:22:29.049Z,101128.19
2023-05-04T01:25:16.125Z,101137.72
2023-05-04T01:28:07.133Z,101140.69
2023-05-04T01:30:58.181Z,101125.84
2023-05-04T01:33:39.417Z,101132.41
2023-05-04T01:36:27.088Z,101135.38
2023-05-04T01:39:08.513Z,101140.56
2023-05-04T01:41:55.079Z,101144.56
2023-05-04T01:44:35.890Z,101146.41
2023-05-04T01:47:24.126Z,101139.03
2023-05-04T01:50:05.963Z,101137.28
2023-05-04T01:52:53.057Z,101119.59
2023-05-04T01:55:40.091Z,101114.56
2023-05-04T01:58:20.188Z,101108.91
2023-05-04T02:01:07.039Z,101102.53
2023-05-04T02:03:54.160Z,101074.84
2023-05-04T02:06:34.543Z,101098.19
2023-05-04T02:09:21.104Z,101101.56
2023-05-04T02:12:01.408Z,101076.72
2023-05-04T02:14:48.022Z,101086.81
2023-05-04T02:17:35.085Z,101089.91
2023-05-04T02:20:23.042Z,101074.94
2023-05-04T02:23:03.527Z,101078.53
2023-05-04T02:25:47.052Z,101087.06
2023-05-04T02:28:27.190Z,101084.47
2023-05-04T02:31:15.020Z,101092.88
2023-05-04T02:34:02.982Z,101091.03
2023-05-04T02:36:53.437Z,101104.25
2023-05-04T02:39:39.963Z,101098.19
2023-05-04T02:42:27.950Z,101095.13
2023-05-04T02:45:15.044Z,101105.13
2023-05-04T02:47:55.370Z,101111.25
2023-05-04T02:50:42.023Z,101126.75
2023-05-04T02:53:29.097Z,101125.94
2023-05-04T02:56:09.006Z,101134.69
2023-05-04T02:58:56.114Z,101136.44
2023-05-04T03:01:36.056Z,101151.44
2023-05-04T03:04:22.992Z,101157.53
2023-05-04T03:07:03.150Z,101155.31
2023-05-04T03:09:49.968Z,101169.06
2023-05-04T03:12:37.986Z,101175.84
2023-05-04T03:15:24.966Z,101187.25
2023-05-04T03:18:11.991Z,101191.84
2023-05-04T03:20:53.440Z,101185.16
2023-05-04T03:23:39.986Z,101187.94
2023-05-04T03:26:27.924Z,101191.22
2023-05-04T03:29:09.098Z,101195.72
2023-05-04T03:31:55.998Z,101211.19
2023-05-04T03:34:42.909Z,101215.16
2023-05-04T03:37:24.479Z,101221.97
2023-05-04T03:40:10.916Z,101212.19
2023-05-04T03:43:04.895Z,101177.78
2023-05-04T03:45:45.417Z,101180.56
2023-05-04T03:48:32.023Z,101200.72
2023-05-04T03:51:15.396Z,101211.88
2023-05-04T03:54:01.935Z,101212.06
2023-05-04T03:56:42.281Z,101220.13
2023-05-04T03:59:30.927Z,101226.75
2023-05-04T04:02:12.838Z,101250.63
2023-05-04T04:04:59.883Z,101254.06
2023-05-04T04:07:41.577Z,101238.38
2023-05-04T04:10:27.927Z,101238.19
2023-05-04T04:13:15.012Z,101238.63
2023-05-04T04:16:02.022Z,101239.94
2023-05-04T04:18:48.886Z,101236.28
2023-05-04T04:21:29.021Z,101215.38
2023-05-04T04:24:15.832Z,101217.53
2023-05-04T04:26:56.203Z,101219.41
2023-05-04T04:29:42.959Z,101236.09
2023-05-04T04:32:23.030Z,101233.09
2023-05-04T04:35:10.872Z,101235.88
2023-05-04T04:37:51.398Z,101234.81
2023-05-04T04:40:37.870Z,101250.16
2023-05-04T04:43:24.861Z,101266.03
2023-05-04T04:46:05.737Z,101284.47
2023-05-04T04:48:52.844Z,101290.34
2023-05-04T04:51:33.321Z,101270.50
2023-05-04T04:54:19.888Z,101267.09
2023-05-04T04:57:00.236Z,101251.06
2023-05-04T04:59:46.841Z,101246.59
2023-05-04T05:02:28.457Z,101248.09
2023-05-04T05:05:15.910Z,101234.34
2023-05-04T05:07:56.432Z,101239.47
2023-05-04T05:10:43.970Z,101232.69
2023-05-04T05:13:31.075Z,101224.03
2023-05-04T05:16:10.904Z,101207.59
2023-05-04T05:18:57.769Z,101210.28
2023-05-04T05:21:37.876Z,101208.81
2023-05-04T05:24:25.843Z,101203.06
2023-05-04T05:27:12.854Z,101200.50
2023-05-04T05:29:59.808Z,101188.03
2023-05-04T05:32:48.450Z,101189.16
2023-05-04T05:35:29.292Z,101187.28
2023-05-04T05:38:15.830Z,101187.13
2023-05-04T05:41:09.878Z,101194.91
2023-05-04T05:43:56.838Z,101198.78
2023-05-04T05:46:36.900Z,101205.44
2023-05-04T05:49:23.933Z,101197.28
2023-05-04T05:52:03.891Z,101195.91
2023-05-04T05:54:50.749Z,101195.63
2023-05-04T05:57:31.051Z,101204.63
2023-05-04T06:00:19.758Z,101195.72
2023-05-04T06:03:00.016Z,101166.47
2023-05-04T06:05:48.243Z,101179.41
2023-05-04T06:08:29.442Z,101177.91
2023-05-04T06:11:19.242Z,101187.09
2023-05-04T06:13:59.891Z,101195.28
2023-05-04T06:16:46.693Z,101205.59
2023-05-04T06:19:34.608Z,101198.84
2023-05-04T06:22:15.384Z,101182.09
2023-05-04T06:25:05.305Z,101181.25
2023-05-04T06:27:54.786Z,101169.28
2023-05-04T06:30:34.947Z,101151.38
2023-05-04T06:33:21.786Z,101137.44
2023-05-04T06:36:08.704Z,101142.16
2023-05-04T06:38:55.665Z,101144.91
2023-05-04T06:41:49.953Z,101145.25
2023-05-04T06:44:30.040Z,101149.13
2023-05-04T06:47:16.628Z,101137.88
2023-05-04T06:49:57.901Z,101134.88
2023-05-04T06:52:44.847Z,101135.13
2023-05-04T06:55:25.088Z,101121.13
2023-05-04T06:58:11.705Z,101119.91
2023-05-04T07:00:53.009Z,101121.88
2023-05-04T07:03:43.672Z,101127.91
2023-05-04T07:06:26.788Z,101131.03
2023-05-04T07:09:13.678Z,101123.84
2023-05-04T07:11:55.313Z,101108.44
2023-05-04T07:14:41.685Z,101100.91
2023-05-04T07:17:28.646Z,101091.00
2023-05-04T07:20:08.768Z,101091.63
2023-05-04T07:40:08.691Z,101078.56
2023-05-04T07:42:49.308Z,101072.63
2023-05-04T07:45:35.703Z,101077.28
2023-05-04T07:48:18.083Z,101065.16
2023-05-04T07:51:04.731Z,101074.97
2023-05-04T07:53:45.116Z,101070.47
2023-05-04T07:56:31.736Z,101070.00
2023-05-04T07:59:12.121Z,101065.44
2023-05-04T08:01:58.713Z,101069.72
2023-05-04T08:04:39.215Z,101070.78
2023-05-04T08:07:25.720Z,101062.81
2023-05-04T08:10:12.918Z,101065.38
2023-05-04T08:12:52.713Z,101069.81
2023-05-04T08:15:39.729Z,101070.19
2023-05-04T08:18:19.731Z,101066.44
2023-05-04T08:21:06.691Z,101059.63
2023-05-04T08:23:46.914Z,101059.63
2023-05-04T08:26:33.681Z,101052.84
2023-05-04T08:29:15.128Z,101050.25
2023-05-04T08:32:04.787Z,101049.66
2023-05-04T08:34:44.777Z,101041.88
2023-05-04T08:37:31.635Z,101044.75
2023-05-04T08:40:25.608Z,101042.53
2023-05-04T08:43:12.601Z,101039.44
2023-05-04T08:45:59.649Z,101033.41
2023-05-04T08:48:46.690Z,101030.63
2023-05-04T08:51:27.256Z,101042.63
2023-05-04T08:54:17.645Z,101034.53
2023-05-04T08:57:05.674Z,101032.25
2023-05-04T08:59:51.346Z,101040.28
2023-05-04T09:02:38.660Z,101031.47
2023-05-04T09:05:19.083Z,101028.25
2023-05-04T09:08:06.639Z,101024.19
2023-05-04T09:10:53.629Z,101026.44
2023-05-04T09:13:40.654Z,101016.84
2023-05-04T09:16:22.094Z,101017.09
2023-05-04T09:19:08.590Z,101012.09
2023-05-04T09:21:51.361Z,101021.31
2023-05-04T09:24:39.731Z,101032.13
2023-05-04T09:27:20.507Z,101023.47
2023-05-04T09:30:07.602Z,101011.91
2023-05-04T09:32:55.598Z,101017.19
2023-05-04T09:35:43.612Z,101011.19
2023-05-04T09:38:34.622Z,101018.72
2023-05-04T09:41:14.795Z,101017.53
2023-05-04T09:44:04.599Z,101021.22
2023-05-04T09:46:51.705Z,101018.78
2023-05-04T09:49:43.600Z,101023.06
2023-05-04T09:52:32.682Z,101031.91
2023-05-04T09:55:16.611Z,101036.22
2023-05-04T09:57:57.049Z,101034.75
2023-05-04T10:00:43.726Z,101037.47
2023-05-04T10:03:26.588Z,101041.28
2023-05-04T10:06:16.605Z,101040.66
2023-05-04T10:09:05.816Z,101035.69
2023-05-04T10:11:46.622Z,101041.31
2023-05-04T10:14:31.254Z,101040.91
2023-05-04T10:17:27.562Z,101035.28
2023-05-04T10:20:19.908Z,101032.34
2023-05-04T10:23:12.520Z,101032.06
2023-05-04T10:26:14.594Z,101029.38
2023-05-04T10:29:13.807Z,101031.41
2023-05-04T10:32:00.644Z,101033.31
2023-05-04T10:34:48.565Z,101032.53
2023-05-04T10:37:29.452Z,101031.63
2023-05-04T10:40:17.563Z,101025.00
2023-05-04T10:43:04.516Z,101032.59
2023-05-04T10:45:48.696Z,101044.25
2023-05-04T10:48:44.556Z,101036.41
2023-05-04T10:51:38.754Z,101026.19
2023-05-04T10:54:29.491Z,101036.03
2023-05-04T10:57:11.701Z,101028.06
2023-05-04T11:00:05.532Z,101044.25
2023-05-04T11:02:47.437Z,101042.81
2023-05-04T11:05:34.451Z,101015.97
2023-05-04T11:08:40.532Z,101026.22
2023-05-04T11:11:28.525Z,101043.00
2023-05-04T11:14:10.754Z,101041.94
2023-05-04T11:16:57.498Z,101035.94
2023-05-04T11:19:37.623Z,101043.34
2023-05-04T11:22:25.497Z,101041.53
2023-05-04T11:25:05.784Z,101040.53
2023-05-04T11:27:55.527Z,101024.00
2023-05-04T11:30:40.511Z,101028.75
2023-05-04T11:33:27.492Z,101010.31
2023-05-04T11:36:07.637Z,101014.47
2023-05-04T11:38:55.535Z,101008.66
2023-05-04T11:41:43.471Z,101016.13
2023-05-04T11:44:23.893Z,101018.75
2023-05-04T11:47:10.434Z,101017.44
2023-05-04T11:49:57.468Z,101022.00
2023-05-04T11:52:40.380Z,101029.94
2023-05-04T11:55:35.462Z,101031.56
2023-05-04T11:58:17.603Z,101016.25
2023-05-04T12:01:05.467Z,101024.09
2023-05-04T12:03:53.644Z,101025.50
2023-05-04T12:06:41.451Z,101025.69
2023-05-04T12:09:21.878Z,101018.44
2023-05-04T12:12:08.419Z,101010.03
2023-05-04T12:15:05.512Z,101029.72
2023-05-04T12:17:45.809Z,101022.59
2023-05-04T12:20:40.402Z,101015.53
2023-05-04T12:23:27.452Z,101016.53
2023-05-04T12:26:15.349Z,101028.31
2023-05-04T12:28:57.057Z,101018.47
2023-05-04T12:31:43.456Z,101013.72
2023-05-04T12:34:23.753Z,101021.09
2023-05-04T12:37:10.403Z,101010.75
2023-05-04T12:40:05.609Z,101003.69
2023-05-04T12:42:58.669Z,100996.97
2023-05-04T12:45:38.366Z,100986.63
2023-05-04T12:48:27.382Z,100987.00
2023-05-04T12:51:08.529Z,100984.34
2023-05-04T12:53:55.371Z,100981.59
2023-05-04T12:56:42.359Z,100977.22
2023-05-04T12:59:23.611Z,100988.25
2023-05-04T13:02:10.395Z,100980.72
2023-05-04T13:04:50.719Z,100986.50
2023-05-04T13:07:37.358Z,100981.84
2023-05-04T13:10:18.578Z,100984.06
2023-05-04T13:13:05.387Z,100988.06
2023-05-04T13:15:50.357Z,100991.38
2023-05-04T13:18:37.337Z,100987.50
2023-05-04T13:21:17.751Z,100994.69
2023-05-04T13:24:04.311Z,100981.75
2023-05-04T13:26:44.963Z,100993.25
2023-05-04T13:29:31.320Z,101000.03
2023-05-04T13:32:11.732Z,100994.59
2023-05-04T13:34:59.406Z,100980.66
2023-05-04T13:37:46.309Z,100972.81
2023-05-04T13:40:40.368Z,100974.41
2023-05-04T13:43:21.936Z,100972.88
2023-05-04T13:46:08.337Z,100968.75
2023-05-04T13:48:56.972Z,100970.94
2023-05-04T13:51:38.421Z,100970.72
2023-05-04T13:54:25.325Z,100951.22
2023-05-04T13:57:05.440Z,100952.22
2023-05-04T14:00:05.794Z,100967.88
2023-05-04T14:02:54.400Z,100951.91
2023-05-04T14:05:41.639Z,100948.16
2023-05-04T14:08:21.333Z,100964.00
2023-05-04T14:11:01.876Z,100942.13
2023-05-04T14:13:48.297Z,100947.16
2023-05-04T14:16:37.364Z,100939.25
2023-05-04T14:19:17.355Z,100937.38
2023-05-04T14:22:04.242Z,100946.19
2023-05-04T14:24:44.385Z,100948.78
2023-05-04T14:27:31.242Z,100944.13
2023-05-04T14:30:12.413Z,100938.78
2023-05-04T14:33:01.267Z,100949.13
2023-05-04T14:35:47.934Z,100959.44
2023-05-04T14:38:35.266Z,100945.78
2023-05-04T14:41:15.537Z,100958.91
2023-05-04T14:44:02.293Z,100958.13
2023-05-04T14:46:42.452Z,100940.59
2023-05-04T14:52:15.452Z,100949.94
2023-05-04T14:55:02.253Z,100950.25
2023-05-04T14:57:42.571Z,100943.19
2023-05-04T15:00:29.272Z,100953.00
2023-05-04T15:03:09.972Z,100971.66
2023-05-04T15:05:57.289Z,100959.31
2023-05-04T15:08:44.239Z,100957.25
2023-05-04T15:11:31.198Z,100952.75
2023-05-04T15:14:11.304Z,100960.50
2023-05-04T15:16:58.208Z,100948.66
2023-05-04T15:19:45.285Z,100957.13
2023-05-04T15:22:32.193Z,100947.09
2023-05-04T15:25:12.363Z,100959.31
2023-05-04T15:27:59.200Z,100940.75
2023-05-04T15:30:39.311Z,100946.88
2023-05-04T15:33:26.247Z,100939.38
2023-05-04T15:36:06.809Z,100936.66
2023-05-04T15:38:53.194Z,100921.81
2023-05-04T15:41:40.226Z,100928.72
2023-05-04T15:44:23.636Z,100931.88
2023-05-04T15:47:12.271Z,100921.44
2023-05-04T15:49:52.656Z,100925.72
2023-05-04T15:52:39.221Z,100932.91
2023-05-04T15:55:25.804Z,100930.81
2023-05-04T15:58:13.196Z,100928.38
2023-05-04T16:00:53.593Z,100921.41
2023-05-04T16:03:40.140Z,100932.94
2023-05-04T16:06:27.178Z,100936.81
2023-05-04T16:09:07.329Z,100927.81
2023-05-04T16:11:54.222Z,100937.19
2023-05-04T16:14:34.306Z,100948.56
2023-05-04T16:17:21.110Z,100932.63
2023-05-04T16:20:01.255Z,100931.00
2023-05-04T16:22:48.139Z,100925.97
2023-05-04T16:25:28.229Z,100940.97
2023-05-04T16:28:15.132Z,100943.75
2023-05-04T16:30:56.299Z,100941.81
2023-05-04T16:33:43.174Z,100939.84
2023-05-04T16:36:30.147Z,100940.34
2023-05-04T16:39:17.190Z,100946.06
2023-05-04T16:42:04.088Z,100947.34
2023-05-04T16:44:51.221Z,100951.25
2023-05-04T16:47:38.330Z,100946.50
2023-05-04T16:50:18.575Z,100948.63
2023-05-04T16:53:05.116Z,100952.22
2023-05-04T16:55:52.113Z,100948.75
2023-05-04T16:58:39.144Z,100961.75
2023-05-04T17:01:26.209Z,100960.47
2023-05-04T17:04:06.237Z,100955.41
2023-05-04T17:06:53.240Z,100950.88
2023-05-04T17:09:33.241Z,100951.19
2023-05-04T17:12:22.329Z,100959.84
2023-05-04T17:15:02.194Z,100953.81
2023-05-04T17:17:49.181Z,100958.91
2023-05-04T17:20:32.093Z,100961.97
2023-05-04T17:23:19.051Z,100965.03
2023-05-04T17:26:06.016Z,100980.38
2023-05-04T17:28:46.461Z,100976.81
2023-05-04T17:31:33.050Z,100977.59
2023-05-04T17:34:13.464Z,100990.00
2023-05-04T17:37:00.036Z,100998.47
2023-05-04T17:39:47.392Z,101002.72
2023-05-04T17:42:27.029Z,100993.09
2023-05-04T17:45:14.050Z,101006.59
2023-05-04T17:47:54.541Z,101011.34
2023-05-04T17:50:41.062Z,101004.47
2023-05-04T17:53:27.968Z,101015.06
2023-05-04T17:56:08.419Z,101012.75
2023-05-04T17:58:56.007Z,101019.13
2023-05-04T18:01:36.409Z,101017.97
2023-05-04T18:04:22.957Z,101021.84
2023-05-04T18:07:03.420Z,101025.28
2023-05-04T18:09:50.047Z,101030.31
2023-05-04T18:12:30.485Z,101024.16
2023-05-04T18:15:17.024Z,101028.16
2023-05-04T18:17:57.471Z,101031.38
2023-05-04T18:20:44.046Z,101043.94
2023-05-04T18:23:24.382Z,101036.75
2023-05-04T18:26:10.929Z,101045.22
2023-05-04T18:29:07.709Z,101049.94
2023-05-04T18:31:57.105Z,101050.88
2023-05-04T18:34:43.994Z,101056.56
2023-05-04T18:37:25.269Z,101062.75
2023-05-04T18:40:12.936Z,101072.31
2023-05-04T18:42:53.051Z,101073.13
2023-05-04T18:45:39.994Z,101073.41
2023-05-04T18:48:27.095Z,101078.06
2023-05-04T18:51:14.979Z,101083.31
2023-05-04T18:53:55.078Z,101088.66
2023-05-04T18:56:42.969Z,101087.81
2023-05-04T18:59:23.056Z,101089.31
2023-05-04T19:02:09.893Z,101092.47
2023-05-04T19:04:56.893Z,101098.44
2023-05-04T19:07:44.060Z,101087.97
2023-05-04T19:10:24.893Z,101084.38
2023-05-04T19:13:12.230Z,101083.13
2023-05-04T19:15:51.965Z,101085.91
2023-05-04T19:18:40.870Z,101085.66
2023-05-04T19:21:20.988Z,101093.00
2023-05-04T19:24:07.890Z,101094.78
2023-05-04T19:26:48.029Z,101091.41
2023-05-04T19:42:17.640Z,101082.06
2023-05-04T19:44:58.080Z,101084.63
2023-05-04T19:47:44.664Z,101077.16
2023-05-04T19:50:25.619Z,101073.75
2023-05-04T19:53:06.096Z,101068.69
2023-05-04T19:55:52.602Z,101066.59
2023-05-04T19:58:39.619Z,101050.03
2023-05-04T20:01:19.718Z,101049.72
2023-05-04T20:04:06.642Z,101047.97
2023-05-04T20:06:46.721Z,101054.25
2023-05-04T20:09:33.646Z,101048.66
2023-05-04T20:12:13.735Z,101044.06
2023-05-04T20:15:00.592Z,101050.69
2023-05-04T20:17:41.582Z,101057.78
2023-05-04T20:20:29.565Z,101052.81
2023-05-04T20:23:09.735Z,101038.00
2023-05-04T20:25:56.583Z,101043.34
2023-05-04T20:28:36.744Z,101044.25
2023-05-04T20:31:23.663Z,101034.63
2023-05-04T20:34:03.659Z,101044.44
2023-05-04T20:36:52.518Z,101051.50
2023-05-04T20:39:39.590Z,101069.59
2023-05-04T20:42:26.607Z,101070.63
2023-05-04T20:45:06.600Z,101070.72
2023-05-04T20:47:46.973Z,101067.78
2023-05-04T20:50:27.606Z,101069.09
2023-05-04T20:53:14.568Z,101072.38
2023-05-04T20:55:54.914Z,101068.16
2023-05-04T20:58:41.532Z,101065.09
2023-05-04T21:01:21.906Z,101074.41
2023-05-04T21:04:08.573Z,101067.47
2023-05-04T21:06:48.878Z,101069.19
2023-05-04T21:09:35.522Z,101070.50
2023-05-04T21:12:22.658Z,101079.72
2023-05-04T21:15:02.512Z,101080.53
2023-05-04T21:17:53.355Z,101070.91
2023-05-04T21:20:33.502Z,101074.00
2023-05-04T21:23:20.489Z,101067.06
2023-05-04T21:26:08.671Z,101061.25
2023-05-04T21:28:57.624Z,101062.50
2023-05-04T21:31:37.563Z,101062.78
2023-05-04T21:34:24.453Z,101066.16
2023-05-04T21:37:04.632Z,101064.81
2023-05-04T21:39:51.506Z,101071.69
2023-05-04T21:42:38.557Z,101066.16
2023-05-04T21:45:18.448Z,101066.56
2023-05-04T21:48:05.609Z,101070.56
2023-05-04T21:50:45.618Z,101065.03
2023-05-04T21:53:32.456Z,101058.09
2023-05-04T21:56:14.585Z,101050.63
2023-05-04T21:59:01.450Z,101053.28
2023-05-04T22:01:42.494Z,101053.88
2023-05-04T22:04:29.474Z,101050.00
2023-05-04T22:07:09.529Z,101047.97
2023-05-04T22:09:56.408Z,101041.44
2023-05-04T22:12:36.539Z,101044.09
2023-05-04T22:15:24.466Z,101030.91
2023-05-04T22:18:07.672Z,101030.59
2023-05-04T22:20:54.440Z,101026.34
2023-05-04T22:23:34.521Z,101029.19
2023-05-04T22:26:21.437Z,101023.56
2023-05-04T22:29:08.490Z,101021.63
2023-05-04T22:31:48.785Z,101009.69
2023-05-04T22:34:35.398Z,101014.66
2023-05-04T22:37:22.405Z,101013.25
2023-05-04T22:40:09.726Z,101013.88
2023-05-04T22:42:49.826Z,101003.88
2023-05-04T22:45:36.424Z,101003.66
2023-05-04T22:48:16.905Z,100998.94
2023-05-04T22:51:03.365Z,101002.72
2023-05-04T22:53:50.424Z,101000.28
2023-05-04T22:56:32.595Z,100987.09
2023-05-04T22:59:19.335Z,100984.06
2023-05-04T23:02:06.440Z,100987.94
2023-05-04T23:04:53.415Z,100995.06
2023-05-04T23:07:33.469Z,100999.78
2023-05-04T23:10:20.353Z,101009.16
2023-05-04T23:13:00.525Z,101007.13
2023-05-04T23:15:47.475Z,101005.19
2023-05-04T23:18:27.494Z,101001.22
2023-05-04T23:21:14.335Z,100996.91
2023-05-04T23:23:57.484Z,100999.88
2023-05-04T23:26:44.393Z,100997.03
2023-05-04T23:29:32.358Z,100998.84
2023-05-04T23:32:12.770Z,101002.34
2023-05-04T23:35:00.377Z,101010.81
2023-05-04T23:37:41.107Z,101010.50
2023-05-04T23:40:28.399Z,101011.28
2023-05-04T23:43:08.731Z,101018.16
2023-05-04T23:45:55.347Z,101009.56
2023-05-04T23:48:35.861Z,101011.09
2023-05-04T23:51:22.353Z,101009.78
2023-05-04T23:54:02.719Z,101008.75
2023-05-04T23:56:49.304Z,101013.47
2023-05-04T23:59:30.138Z,101006.94
